Time;durP1;ratioP1;P1;durP2;ratioP2;P2;SDS_P1;SDS_P2;PMS_P1;PMS_P2;Temp;Humidity;BMP_temperature;BMP_pressure;BME280_temperature;BME280_humidity;BME280_pressure;Samples;Min_cycle;Max_cycle;Signal;HPM_P1;HPM_P2
2021/09/13 00:00:27;;;;;;;0.40;0.30;;;15.90;99.90;;;;;;5051202;28;20382;-71
2021/09/13 00:02:52;;;;;;;0.40;0.20;;;15.90;99.90;;;;;;5050919;28;20441;-72
2021/09/13 00:05:18;;;;;;;0.40;0.20;;;15.90;99.90;;;;;;5050889;28;20492;-72
2021/09/13 00:07:44;;;;;;;0.40;0.30;;;15.90;99.90;;;;;;5051464;28;20385;-72
2021/09/13 00:10:10;;;;;;;0.40;0.20;;;15.90;99.90;;;;;;5050473;28;20385;-72
2021/09/13 00:12:36;;;;;;;0.40;0.20;;;15.90;99.90;;;;;;5051265;28;20733;-72
2021/09/13 00:15:03;;;;;;;0.40;0.30;;;15.90;99.90;;;;;;5050700;28;20562;-72
2021/09/13 00:17:29;;;;;;;0.40;0.20;;;15.80;99.90;;;;;;5051196;28;20385;-72
2021/09/13 00:19:54;;;;;;;0.40;0.30;;;15.70;99.90;;;;;;5051077;28;20706;-72
2021/09/13 00:22:20;;;;;;;0.40;0.30;;;15.70;99.90;;;;;;5050516;28;20820;-72
2021/09/13 00:24:46;;;;;;;0.40;0.30;;;15.70;99.90;;;;;;5051107;28;20473;-72
2021/09/13 00:27:12;;;;;;;0.40;0.30;;;15.60;99.90;;;;;;5050221;28;20753;-72
2021/09/13 00:29:37;;;;;;;0.40;0.30;;;15.50;99.90;;;;;;5050692;28;20876;-72
2021/09/13 00:32:03;;;;;;;0.40;0.30;;;15.60;99.90;;;;;;5050472;28;20385;-72
2021/09/13 00:34:29;;;;;;;0.40;0.30;;;15.50;99.90;;;;;;5050671;28;20788;-72
2021/09/13 00:36:55;;;;;;;0.40;0.20;;;15.40;99.90;;;;;;5050898;28;20374;-72
2021/09/13 00:39:20;;;;;;;0.40;0.23;;;15.40;99.90;;;;;;5050229;28;20408;-72
2021/09/13 00:41:46;;;;;;;0.40;0.23;;;15.40;99.90;;;;;;5050498;28;20482;-71
2021/09/13 00:44:12;;;;;;;0.40;0.20;;;15.40;99.90;;;;;;5049917;28;20395;-71
2021/09/13 00:46:37;;;;;;;0.40;0.20;;;15.50;99.90;;;;;;5050746;28;20381;-71
2021/09/13 00:49:03;;;;;;;0.40;0.30;;;15.50;99.90;;;;;;5050127;28;20472;-72
2021/09/13 00:51:29;;;;;;;0.40;0.30;;;15.40;99.90;;;;;;5032874;28;20392;-71
2021/09/13 00:53:55;;;;;;;0.40;0.30;;;15.40;99.90;;;;;;5050681;28;20383;-70
2021/09/13 00:56:21;;;;;;;0.40;0.30;;;15.30;99.90;;;;;;5049529;28;20745;-71
2021/09/13 00:58:51;;;;;;;0.40;0.30;;;15.40;99.90;;;;;;5050723;28;20462;-71
2021/09/13 01:01:17;;;;;;;0.40;0.30;;;15.40;99.90;;;;;;5050103;28;20734;-71
2021/09/13 01:03:43;;;;;;;0.40;0.20;;;15.50;99.90;;;;;;5050948;28;20516;-71
2021/09/13 01:06:08;;;;;;;0.40;0.20;;;15.30;99.90;;;;;;5032163;28;20948;-71
2021/09/13 01:08:34;;;;;;;0.40;0.20;;;15.30;99.90;;;;;;5032583;28;20470;-71
2021/09/13 01:11:01;;;;;;;0.40;0.20;;;15.30;99.90;;;;;;5050249;28;20385;-71
2021/09/13 01:13:27;;;;;;;0.40;0.30;;;15.20;99.90;;;;;;5049845;28;20400;-71
2021/09/13 01:15:52;;;;;;;0.40;0.20;;;15.20;99.90;;;;;;5054591;28;20378;-71
2021/09/13 01:18:18;;;;;;;0.40;0.20;;;15.30;99.90;;;;;;5053649;28;20473;-71
2021/09/13 01:20:44;;;;;;;0.40;0.20;;;15.40;99.90;;;;;;5054416;28;20385;-71
2021/09/13 01:23:19;;;;;;;0.40;0.20;;;15.50;99.90;;;;;;5053774;28;20471;-71
2021/09/13 01:25:44;;;;;;;0.40;0.30;;;15.30;99.90;;;;;;5054338;28;20468;-71
2021/09/13 01:28:10;;;;;;;0.40;0.20;;;15.30;99.90;;;;;;5053337;28;20592;-71
2021/09/13 01:30:36;;;;;;;0.40;0.30;;;15.30;99.90;;;;;;5054097;28;20389;-70
2021/09/13 01:33:01;;;;;;;0.40;0.20;;;15.40;99.90;;;;;;5054185;28;20390;-71
2021/09/13 01:35:27;;;;;;;0.40;0.30;;;15.30;99.90;;;;;;5053622;28;20439;-71
2021/09/13 01:37:52;;;;;;;0.40;0.30;;;15.40;99.90;;;;;;5054005;28;20382;-71
2021/09/13 01:40:18;;;;;;;0.40;0.22;;;15.50;99.90;;;;;;5053545;28;20393;-71
2021/09/13 01:42:44;;;;;;;0.40;0.30;;;15.50;99.90;;;;;;5054042;28;20459;-71
2021/09/13 01:45:09;;;;;;;0.40;0.20;;;15.40;99.90;;;;;;5053451;28;20378;-71
2021/09/13 01:47:35;;;;;;;0.40;0.30;;;15.40;99.90;;;;;;5036087;28;20756;-71
2021/09/13 01:50:01;;;;;;;0.50;0.50;;;15.40;99.90;;;;;;5053974;28;20377;-71
2021/09/13 01:52:26;;;;;;;0.40;0.30;;;15.30;99.90;;;;;;5053291;28;20377;-72
2021/09/13 01:54:52;;;;;;;0.40;0.30;;;15.40;99.90;;;;;;5053806;28;20516;-71
2021/09/13 01:57:18;;;;;;;0.40;0.30;;;15.40;99.90;;;;;;5052715;28;20436;-71
2021/09/13 01:59:43;;;;;;;0.40;0.20;;;15.30;99.90;;;;;;5053770;28;20873;-71
2021/09/13 02:02:09;;;;;;;0.40;0.30;;;15.30;99.90;;;;;;5052808;28;20417;-71
2021/09/13 02:04:34;;;;;;;0.40;0.30;;;15.20;99.90;;;;;;5053653;28;20447;-71
2021/09/13 02:07:00;;;;;;;0.40;0.30;;;15.30;99.90;;;;;;5053904;28;20413;-71
2021/09/13 02:09:26;;;;;;;0.40;0.20;;;15.30;99.90;;;;;;5052957;28;20385;-71
2021/09/13 02:11:51;;;;;;;0.40;0.20;;;15.10;99.90;;;;;;5053279;28;20386;-71
2021/09/13 02:14:17;;;;;;;0.40;0.30;;;15.00;99.90;;;;;;5052678;28;20394;-71
2021/09/13 02:16:42;;;;;;;0.40;0.20;;;15.00;99.90;;;;;;5053235;28;20405;-71
2021/09/13 02:19:08;;;;;;;0.40;0.20;;;15.00;99.90;;;;;;5052805;28;20389;-71
2021/09/13 02:21:34;;;;;;;0.40;0.20;;;14.90;99.90;;;;;;5053180;28;20393;-71
2021/09/13 02:24:00;;;;;;;0.40;0.27;;;14.80;99.90;;;;;;5053332;28;20915;-71
2021/09/13 02:26:25;;;;;;;0.40;0.30;;;14.90;99.90;;;;;;5052068;28;20923;-71
2021/09/13 02:28:51;;;;;;;0.40;0.20;;;14.90;99.90;;;;;;5052905;28;20382;-71
2021/09/13 02:31:16;;;;;;;0.40;0.30;;;14.90;99.90;;;;;;5052338;28;20385;-71
2021/09/13 02:33:42;;;;;;;0.40;0.30;;;14.80;99.90;;;;;;5053424;28;20468;-71
2021/09/13 02:36:08;;;;;;;0.40;0.30;;;14.70;99.90;;;;;;5053373;28;20381;-71
2021/09/13 02:38:34;;;;;;;0.40;0.30;;;14.70;99.90;;;;;;5052923;28;20429;-71
2021/09/13 02:40:59;;;;;;;0.40;0.30;;;14.70;99.90;;;;;;5053060;28;20761;-71
2021/09/13 02:43:25;;;;;;;0.40;0.30;;;14.80;99.90;;;;;;5052013;28;20414;-71
2021/09/13 02:45:51;;;;;;;0.40;0.20;;;14.70;99.90;;;;;;5053245;28;20833;-71
2021/09/13 02:48:16;;;;;;;0.40;0.30;;;14.70;99.90;;;;;;5052361;28;20381;-71
2021/09/13 02:50:42;;;;;;;0.40;0.30;;;14.70;99.90;;;;;;5052733;28;20868;-70
2021/09/13 02:53:08;;;;;;;0.40;0.30;;;14.80;99.90;;;;;;5052575;28;20484;-72
2021/09/13 02:55:34;;;;;;;0.40;0.30;;;14.80;99.90;;;;;;5051936;28;20384;-72
2021/09/13 02:57:59;;;;;;;0.40;0.30;;;14.70;99.90;;;;;;5052864;28;20416;-72
2021/09/13 03:00:25;;;;;;;0.40;0.30;;;14.70;99.90;;;;;;5052093;28;20884;-72
2021/09/13 03:02:51;;;;;;;0.40;0.20;;;14.80;99.90;;;;;;5052652;28;20589;-72
2021/09/13 03:05:16;;;;;;;0.40;0.20;;;14.80;99.90;;;;;;5034139;28;20390;-73
2021/09/13 03:07:42;;;;;;;0.40;0.20;;;14.70;99.90;;;;;;5052476;28;20703;-72
2021/09/13 03:10:08;;;;;;;0.40;0.30;;;14.80;99.90;;;;;;5034517;28;20386;-72
2021/09/13 03:12:34;;;;;;;0.40;0.30;;;14.80;99.90;;;;;;5051708;28;20382;-72
2021/09/13 03:15:01;;;;;;;0.40;0.20;;;15.00;99.90;;;;;;5052429;28;20381;-72
2021/09/13 03:17:27;;;;;;;0.40;0.30;;;15.00;99.90;;;;;;5051790;28;20384;-72
2021/09/13 03:19:53;;;;;;;0.40;0.20;;;15.00;99.90;;;;;;5052234;28;20385;-71
2021/09/13 03:22:18;;;;;;;0.40;0.20;;;14.90;99.90;;;;;;5051617;28;20482;-72
2021/09/13 03:24:44;;;;;;;0.50;0.50;;;14.80;99.90;;;;;;5034356;28;20417;-72
2021/09/13 03:27:09;;;;;;;0.40;0.30;;;14.70;99.90;;;;;;5052263;28;20535;-72
2021/09/13 03:29:35;;;;;;;0.40;0.30;;;14.70;99.90;;;;;;5051419;28;20687;-72
2021/09/13 03:32:01;;;;;;;0.40;0.30;;;14.70;99.90;;;;;;5052066;28;20374;-72
2021/09/13 03:34:26;;;;;;;0.50;0.50;;;14.80;99.90;;;;;;5051134;28;20377;-72
2021/09/13 03:36:54;;;;;;;0.40;0.20;;;14.80;99.90;;;;;;5033417;28;20471;-72
2021/09/13 03:39:20;;;;;;;0.40;0.30;;;14.80;99.90;;;;;;5051024;28;20451;-72
2021/09/13 03:41:45;;;;;;;0.40;0.20;;;14.80;99.90;;;;;;5052004;28;20393;-72
2021/09/13 03:44:11;;;;;;;0.40;0.20;;;14.70;99.90;;;;;;5051474;28;20418;-72
2021/09/13 03:46:36;;;;;;;0.40;0.30;;;14.70;99.90;;;;;;5051186;28;20389;-72
2021/09/13 03:49:02;;;;;;;0.40;0.20;;;14.80;99.90;;;;;;5051758;28;20373;-72
2021/09/13 03:51:28;;;;;;;0.40;0.30;;;14.80;99.90;;;;;;5051114;28;20381;-72
2021/09/13 03:53:53;;;;;;;0.40;0.30;;;14.70;99.90;;;;;;5051383;28;20865;-72
2021/09/13 03:56:19;;;;;;;0.40;0.30;;;14.80;99.90;;;;;;5050854;28;20451;-72
2021/09/13 03:58:44;;;;;;;0.40;0.20;;;14.50;99.90;;;;;;5033753;28;20408;-72
2021/09/13 04:01:10;;;;;;;0.40;0.30;;;14.50;99.90;;;;;;5051442;28;20873;-72
2021/09/13 04:03:45;;;;;;;0.40;0.30;;;14.50;99.90;;;;;;5033399;28;20484;-72
2021/09/13 04:06:19;;;;;;;0.40;0.30;;;14.40;99.90;;;;;;5051977;28;20374;-72
2021/09/13 04:11:35;;;;;;;0.40;0.30;;;14.30;99.90;;;;;;5051212;28;20881;-72
2021/09/13 04:14:01;;;;;;;0.40;0.20;;;14.30;99.90;;;;;;5051939;28;20453;-72
2021/09/13 04:16:26;;;;;;;0.40;0.20;;;14.40;99.90;;;;;;5050842;28;20806;-72
2021/09/13 04:18:52;;;;;;;0.40;0.20;;;14.40;99.90;;;;;;5051389;28;20385;-72
2021/09/13 04:21:17;;;;;;;0.40;0.20;;;14.40;99.90;;;;;;5050658;28;20385;-72
2021/09/13 04:23:43;;;;;;;0.40;0.20;;;14.40;99.90;;;;;;5033666;28;20421;-72
2021/09/13 04:26:08;;;;;;;0.40;0.20;;;14.50;99.90;;;;;;5051531;28;20388;-72
2021/09/13 04:28:34;;;;;;;0.40;0.20;;;14.50;99.90;;;;;;5050838;28;20558;-72
2021/09/13 04:31:00;;;;;;;0.40;0.30;;;14.50;99.90;;;;;;5051236;28;20468;-72
2021/09/13 04:33:25;;;;;;;0.40;0.20;;;14.60;99.90;;;;;;5050723;28;20405;-72
2021/09/13 04:35:51;;;;;;;0.40;0.30;;;14.60;99.90;;;;;;5051047;28;20382;-72
2021/09/13 04:38:17;;;;;;;0.40;0.20;;;14.50;99.90;;;;;;5050484;28;20892;-72
2021/09/13 04:40:42;;;;;;;0.40;0.20;;;14.60;99.90;;;;;;5033563;28;20765;-72
2021/09/13 04:43:08;;;;;;;0.40;0.20;;;14.60;99.90;;;;;;5051309;28;20514;-72
2021/09/13 04:45:33;;;;;;;0.40;0.20;;;14.50;99.90;;;;;;5050723;28;20396;-72
2021/09/13 04:47:59;;;;;;;0.40;0.20;;;14.30;99.90;;;;;;5051308;28;20736;-72
2021/09/13 04:50:25;;;;;;;0.40;0.30;;;14.20;99.90;;;;;;5050584;28;20771;-72
2021/09/13 04:52:50;;;;;;;0.40;0.20;;;14.20;99.90;;;;;;5050924;28;20392;-72
2021/09/13 04:55:16;;;;;;;0.40;0.20;;;14.10;99.90;;;;;;5051061;28;20386;-72
2021/09/13 04:57:42;;;;;;;0.40;0.20;;;14.10;99.90;;;;;;5050687;28;20425;-72
2021/09/13 05:00:08;;;;;;;0.40;0.20;;;14.00;99.90;;;;;;5050811;28;20431;-72
2021/09/13 05:02:34;;;;;;;0.40;0.20;;;14.10;99.90;;;;;;5050006;28;20881;-72
2021/09/13 05:04:59;;;;;;;0.40;0.30;;;14.30;99.90;;;;;;5051018;28;20381;-72
2021/09/13 05:07:27;;;;;;;0.40;0.30;;;14.30;99.90;;;;;;5050425;28;20433;-72
2021/09/13 05:09:52;;;;;;;0.40;0.20;;;14.30;99.90;;;;;;5050912;28;20868;-72
2021/09/13 05:12:18;;;;;;;0.40;0.30;;;14.10;99.90;;;;;;5050381;28;20396;-73
2021/09/13 05:14:44;;;;;;;0.40;0.20;;;14.10;99.90;;;;;;5050777;28;20393;-72
2021/09/13 05:17:09;;;;;;;0.40;0.20;;;14.20;99.90;;;;;;5050911;28;20384;-72
2021/09/13 05:19:35;;;;;;;0.40;0.30;;;14.30;99.90;;;;;;5050199;28;20370;-72
2021/09/13 05:22:00;;;;;;;0.40;0.30;;;14.30;99.90;;;;;;5050771;28;20424;-72
2021/09/13 05:24:26;;;;;;;0.40;0.20;;;14.20;99.90;;;;;;5050294;28;20899;-72
2021/09/13 05:26:52;;;;;;;0.40;0.30;;;14.30;99.90;;;;;;5050808;28;20760;-72
2021/09/13 05:29:17;;;;;;;0.40;0.20;;;14.40;99.90;;;;;;5050848;28;20421;-72
2021/09/13 05:31:43;;;;;;;0.40;0.20;;;14.50;99.90;;;;;;5050067;28;20382;-72
2021/09/13 05:34:09;;;;;;;0.40;0.20;;;14.40;99.90;;;;;;5050871;28;20385;-72
2021/09/13 05:36:34;;;;;;;0.40;0.30;;;14.30;99.90;;;;;;5050359;28;20790;-72
2021/09/13 05:39:00;;;;;;;0.40;0.20;;;14.40;99.90;;;;;;5050685;28;20381;-72
2021/09/13 05:41:26;;;;;;;0.40;0.20;;;14.40;99.90;;;;;;5049945;28;20374;-72
2021/09/13 05:43:51;;;;;;;0.40;0.30;;;14.50;99.90;;;;;;5050425;28;20507;-71
2021/09/13 05:46:17;;;;;;;0.40;0.30;;;14.50;99.90;;;;;;5050575;28;20734;-72
2021/09/13 05:48:42;;;;;;;0.40;0.23;;;14.50;99.90;;;;;;5050111;28;20861;-72
2021/09/13 05:51:08;;;;;;;0.40;0.30;;;14.40;99.90;;;;;;5050640;28;20464;-72
2021/09/13 05:53:33;;;;;;;0.40;0.20;;;14.50;99.90;;;;;;5049576;28;20396;-72
2021/09/13 05:55:59;;;;;;;0.40;0.30;;;14.50;99.90;;;;;;5050400;28;20873;-72
2021/09/13 05:58:25;;;;;;;0.40;0.30;;;14.60;99.90;;;;;;5049687;28;20389;-72
2021/09/13 06:00:51;;;;;;;0.40;0.30;;;14.60;99.90;;;;;;5052741;28;20373;-72
2021/09/13 06:03:16;;;;;;;0.40;0.30;;;14.50;99.90;;;;;;5036310;28;20420;-72
2021/09/13 06:05:42;;;;;;;0.40;0.30;;;14.50;99.90;;;;;;5053626;28;20388;-72
2021/09/13 06:08:08;;;;;;;0.40;0.20;;;14.60;99.90;;;;;;5053826;28;20741;-71
2021/09/13 06:10:33;;;;;;;0.40;0.28;;;14.60;99.90;;;;;;5053490;28;20381;-71
2021/09/13 06:12:59;;;;;;;0.40;0.30;;;14.70;99.90;;;;;;5053961;28;20729;-70
2021/09/13 06:15:25;;;;;;;0.40;0.20;;;14.80;99.90;;;;;;5053303;28;20385;-71
2021/09/13 06:17:50;;;;;;;0.40;0.30;;;14.90;99.90;;;;;;5053907;28;20381;-70
2021/09/13 06:20:16;;;;;;;0.40;0.20;;;15.00;99.90;;;;;;5053825;28;20378;-71
2021/09/13 06:22:42;;;;;;;0.40;0.30;;;15.00;99.90;;;;;;5052828;28;20566;-71
2021/09/13 06:25:08;;;;;;;0.40;0.30;;;15.00;99.90;;;;;;5053420;28;20381;-70
2021/09/13 06:27:33;;;;;;;0.40;0.30;;;15.20;99.90;;;;;;5053120;28;20885;-70
2021/09/13 06:29:59;;;;;;;0.40;0.30;;;15.20;99.90;;;;;;5053674;28;20378;-70
2021/09/13 06:32:25;;;;;;;0.40;0.30;;;15.20;99.90;;;;;;5053078;28;20377;-71
2021/09/13 06:34:50;;;;;;;0.40;0.30;;;15.20;99.90;;;;;;5053778;28;20381;-71
2021/09/13 06:37:19;;;;;;;0.40;0.30;;;15.30;99.90;;;;;;5053545;28;20378;-70
2021/09/13 06:39:46;;;;;;;0.40;0.30;;;15.30;99.90;;;;;;5052792;28;20381;-71
2021/09/13 06:42:12;;;;;;;0.40;0.20;;;15.30;99.90;;;;;;5052936;28;20877;-71
2021/09/13 06:44:38;;;;;;;0.40;0.20;;;15.40;99.90;;;;;;5052823;28;20389;-71
2021/09/13 06:47:21;;;;;;;0.40;0.30;;;15.50;99.90;;;;;;5035469;28;20389;-71
2021/09/13 06:49:46;;;;;;;0.40;0.30;;;15.50;99.90;;;;;;5052762;28;20460;-71
2021/09/13 06:52:12;;;;;;;0.40;0.30;;;15.60;99.90;;;;;;5052954;28;20562;-71
2021/09/13 06:54:37;;;;;;;0.40;0.30;;;15.70;99.90;;;;;;5052405;28;20866;-71
2021/09/13 06:57:03;;;;;;;0.40;0.30;;;15.70;99.90;;;;;;5034946;28;20885;-71
2021/09/13 06:59:29;;;;;;;0.40;0.20;;;15.70;99.90;;;;;;5052341;28;20452;-71
2021/09/13 07:01:54;;;;;;;0.40;0.30;;;15.80;99.90;;;;;;5052791;28;20385;-71
2021/09/13 07:04:22;;;;;;;0.40;0.30;;;15.90;99.90;;;;;;5053118;28;20401;-71
2021/09/13 07:06:50;;;;;;;0.40;0.30;;;16.00;99.90;;;;;;5052416;28;20389;-71
2021/09/13 07:09:15;;;;;;;0.40;0.22;;;16.10;99.90;;;;;;5052661;28;20870;-71
2021/09/13 07:11:41;;;;;;;0.40;0.30;;;16.20;99.90;;;;;;5052415;28;20396;-71
2021/09/13 07:14:07;;;;;;;0.40;0.20;;;16.20;99.90;;;;;;5053294;28;20411;-71
2021/09/13 07:16:32;;;;;;;0.40;0.30;;;16.30;99.90;;;;;;5052180;28;20408;-72
2021/09/13 07:18:58;;;;;;;0.40;0.30;;;16.30;99.90;;;;;;5052769;28;20382;-71
2021/09/13 07:21:23;;;;;;;0.40;0.30;;;16.40;99.90;;;;;;5052741;28;20385;-72
2021/09/13 07:23:49;;;;;;;0.40;0.30;;;16.50;99.90;;;;;;5051950;28;20417;-72
2021/09/13 07:26:15;;;;;;;0.40;0.20;;;16.60;99.90;;;;;;5052987;28;20481;-72
2021/09/13 07:28:40;;;;;;;0.40;0.27;;;16.60;99.90;;;;;;5052257;28;20907;-72
2021/09/13 07:31:06;;;;;;;0.40;0.30;;;16.70;99.90;;;;;;5034944;28;20401;-72
2021/09/13 07:33:32;;;;;;;0.40;0.30;;;16.70;99.90;;;;;;5051620;28;20616;-72
2021/09/13 07:35:57;;;;;;;0.40;0.30;;;16.80;99.90;;;;;;5052412;28;20913;-72
2021/09/13 07:38:24;;;;;;;0.40;0.20;;;16.90;99.90;;;;;;5052331;28;20908;-72
2021/09/13 07:40:50;;;;;;;0.40;0.20;;;16.90;99.90;;;;;;5051674;28;20381;-72
2021/09/13 07:43:16;;;;;;;0.40;0.30;;;17.10;99.90;;;;;;5052213;28;20504;-72
2021/09/13 07:45:41;;;;;;;0.40;0.30;;;17.20;99.90;;;;;;5051419;28;20869;-72
2021/09/13 07:48:07;;;;;;;0.40;0.30;;;17.20;99.90;;;;;;5052301;28;20372;-72
2021/09/13 07:50:33;;;;;;;0.40;0.30;;;17.20;99.90;;;;;;5051249;28;20392;-72
2021/09/13 07:52:59;;;;;;;0.40;0.20;;;17.30;99.90;;;;;;5051990;28;20385;-72
2021/09/13 07:55:24;;;;;;;0.40;0.30;;;17.40;99.90;;;;;;5052018;28;20721;-72
2021/09/13 07:57:50;;;;;;;0.40;0.30;;;17.50;99.90;;;;;;5051251;28;20801;-72
2021/09/13 08:00:16;;;;;;;0.40;0.20;;;17.50;99.90;;;;;;5051940;28;20934;-72
2021/09/13 08:02:42;;;;;;;0.40;0.20;;;17.70;99.90;;;;;;5051225;28;20409;-72
2021/09/13 08:05:08;;;;;;;0.40;0.20;;;17.80;99.90;;;;;;5034152;28;20527;-72
2021/09/13 08:07:34;;;;;;;0.40;0.30;;;18.10;99.90;;;;;;5051062;28;20733;-72
2021/09/13 08:10:00;;;;;;;0.40;0.20;;;18.40;99.90;;;;;;5051594;28;20381;-72
2021/09/13 08:12:26;;;;;;;0.40;0.20;;;18.40;99.90;;;;;;5051792;28;20472;-72
2021/09/13 08:14:51;;;;;;;0.40;0.30;;;18.40;99.90;;;;;;5050872;28;20439;-72
2021/09/13 08:17:17;;;;;;;0.40;0.20;;;18.50;99.90;;;;;;5051579;28;20388;-72
2021/09/13 08:19:44;;;;;;;0.40;0.30;;;18.50;99.90;;;;;;5051083;28;20385;-72
2021/09/13 08:22:10;;;;;;;0.40;0.30;;;18.60;99.90;;;;;;5050988;28;20935;-72
2021/09/13 08:24:36;;;;;;;0.40;0.20;;;18.60;99.90;;;;;;5033143;28;20451;-72
2021/09/13 08:27:02;;;;;;;0.40;0.30;;;18.70;99.90;;;;;;5051111;28;20878;-72
2021/09/13 08:29:28;;;;;;;0.40;0.20;;;18.90;99.90;;;;;;5051481;28;20733;-72
2021/09/13 08:31:56;;;;;;;0.40;0.20;;;18.90;99.90;;;;;;5050852;28;20498;-72
2021/09/13 08:34:22;;;;;;;0.40;0.30;;;18.80;99.90;;;;;;5051224;28;20822;-72
2021/09/13 08:36:48;;;;;;;0.40;0.40;;;19.00;99.90;;;;;;5050770;28;20386;-72
2021/09/13 08:39:14;;;;;;;0.40;0.30;;;19.00;99.90;;;;;;5051341;28;20385;-72
2021/09/13 08:41:41;;;;;;;0.40;0.20;;;19.00;99.90;;;;;;5050737;28;20389;-71
2021/09/13 08:44:09;;;;;;;0.40;0.20;;;19.00;99.90;;;;;;5051278;28;20416;-72
2021/09/13 08:49:11;;;;;;;0.40;0.30;;;19.30;99.90;;;;;;5051189;28;20495;-72
2021/09/13 08:51:37;;;;;;;0.40;0.20;;;19.10;99.90;;;;;;5050516;28;20400;-72
2021/09/13 08:54:08;;;;;;;0.40;0.20;;;19.10;99.90;;;;;;5051174;28;20385;-72
2021/09/13 08:56:41;;;;;;;0.40;0.20;;;19.20;99.90;;;;;;5050370;28;20488;-72
2021/09/13 08:59:14;;;;;;;0.40;0.30;;;19.30;99.90;;;;;;5051109;28;20389;-72
2021/09/13 09:01:40;;;;;;;0.40;0.20;;;19.40;99.90;;;;;;5050491;28;20389;-72
2021/09/13 09:04:07;;;;;;;0.40;0.30;;;19.40;99.90;;;;;;5051121;28;20409;-71
2021/09/13 09:06:41;;;;;;;0.40;0.30;;;19.60;99.90;;;;;;5050393;28;20409;-72
2021/09/13 09:09:18;;;;;;;0.40;0.30;;;19.50;99.90;;;;;;5051210;28;20400;-72
2021/09/13 09:11:50;;;;;;;0.40;0.20;;;19.60;99.90;;;;;;5050359;28;20388;-72
2021/09/13 09:14:24;;;;;;;0.40;0.20;;;19.60;99.90;;;;;;5050786;28;20476;-72
2021/09/13 09:16:58;;;;;;;0.40;0.30;;;19.60;99.90;;;;;;5050351;28;20435;-72
2021/09/13 09:19:24;;;;;;;0.40;0.30;;;19.80;99.90;;;;;;5050972;28;20381;-72
2021/09/13 09:21:49;;;;;;;0.40;0.20;;;20.00;99.90;;;;;;5050340;28;20389;-72
2021/09/13 09:24:16;;;;;;;0.40;0.20;;;20.00;99.90;;;;;;5050928;28;20419;-72
2021/09/13 09:27:00;;;;;;;0.40;0.30;;;19.90;99.90;;;;;;5050154;28;20444;-72
2021/09/13 09:29:32;;;;;;;0.40;0.30;;;20.00;99.90;;;;;;5050930;28;20461;-72
2021/09/13 09:31:59;;;;;;;0.40;0.30;;;20.00;99.90;;;;;;5050344;28;20421;-72
2021/09/13 09:34:28;;;;;;;0.40;0.30;;;20.20;99.90;;;;;;5051017;28;20415;-72
2021/09/13 09:36:59;;;;;;;0.40;0.20;;;20.10;99.90;;;;;;5053941;28;20512;-72
2021/09/13 09:39:50;;;;;;;0.40;0.30;;;20.20;99.90;;;;;;5054595;28;20866;-72
2021/09/13 09:42:38;;;;;;;0.60;0.60;;;20.10;99.90;;;;;;5054692;28;20468;-72
2021/09/13 09:45:23;;;;;;;0.40;0.30;;;20.30;99.90;;;;;;5054672;28;20817;-72
2021/09/13 09:48:09;;;;;;;0.40;0.20;;;20.40;99.90;;;;;;5036066;28;20388;-72
2021/09/13 09:50:35;;;;;;;0.40;0.30;;;20.60;99.90;;;;;;5053998;28;20377;-72
2021/09/13 09:53:15;;;;;;;0.40;0.30;;;20.50;99.90;;;;;;5054076;28;20381;-71
2021/09/13 09:55:41;;;;;;;0.40;0.30;;;20.60;99.90;;;;;;5053673;28;20397;-72
2021/09/13 09:58:13;;;;;;;0.40;0.20;;;20.70;99.90;;;;;;5053790;28;20416;-72
2021/09/13 10:00:39;;;;;;;0.40;0.30;;;20.70;99.90;;;;;;5035829;28;20836;-72
2021/09/13 10:03:06;;;;;;;0.40;0.30;;;20.70;99.90;;;;;;5054071;28;20415;-72
2021/09/13 10:05:33;;;;;;;0.40;0.30;;;20.80;99.90;;;;;;5054157;28;20381;-72
2021/09/13 10:07:59;;;;;;;0.40;0.30;;;20.70;99.90;;;;;;5053495;28;20717;-72
2021/09/13 10:10:30;;;;;;;0.40;0.20;;;20.80;99.90;;;;;;5054079;28;20392;-72
2021/09/13 10:13:01;;;;;;;0.40;0.30;;;20.80;99.90;;;;;;5053472;28;20725;-72
2021/09/13 10:15:28;;;;;;;0.40;0.30;;;20.90;99.90;;;;;;5054067;28;20464;-72
2021/09/13 10:17:53;;;;;;;0.40;0.30;;;21.00;99.90;;;;;;5053630;28;20390;-71
2021/09/13 10:20:22;;;;;;;0.40;0.30;;;21.40;99.90;;;;;;5053610;28;20374;-72
2021/09/13 10:22:50;;;;;;;0.40;0.20;;;21.30;99.90;;;;;;5053161;28;20421;-72
2021/09/13 10:25:15;;;;;;;0.40;0.20;;;21.40;99.90;;;;;;5053716;28;20370;-72
2021/09/13 10:27:46;;;;;;;0.40;0.30;;;21.40;99.90;;;;;;5053148;28;20943;-73
2021/09/13 10:30:16;;;;;;;0.40;0.30;;;21.30;99.90;;;;;;5053695;28;20424;-72
2021/09/13 10:32:43;;;;;;;0.40;0.30;;;21.40;99.90;;;;;;5035056;28;20897;-72
2021/09/13 10:35:10;;;;;;;0.40;0.20;;;21.70;99.90;;;;;;5053607;28;20389;-72
2021/09/13 10:37:51;;;;;;;0.40;0.27;;;21.90;99.90;;;;;;5053547;28;20385;-71
2021/09/13 10:40:17;;;;;;;0.40;0.30;;;21.90;99.90;;;;;;5053617;28;20380;-72
2021/09/13 10:42:45;;;;;;;0.40;0.20;;;21.90;99.90;;;;;;5052731;28;20409;-72
2021/09/13 10:45:25;;;;;;;0.40;0.30;;;21.90;99.90;;;;;;5035598;28;20788;-72
2021/09/13 10:48:20;;;;;;;0.40;0.20;;;21.90;99.90;;;;;;5052794;28;20468;-72
2021/09/13 10:50:54;;;;;;;0.40;0.30;;;21.90;99.90;;;;;;5052705;28;20374;-72
2021/09/13 10:53:24;;;;;;;0.40;0.20;;;22.20;99.90;;;;;;5053227;28;20465;-72
2021/09/13 10:56:04;;;;;;;0.40;0.20;;;22.40;99.90;;;;;;5052458;28;20447;-72
2021/09/13 10:58:44;;;;;;;0.40;0.30;;;22.40;99.90;;;;;;5052316;28;20413;-72
2021/09/13 11:01:26;;;;;;;0.40;0.30;;;22.50;99.90;;;;;;5052855;28;20381;-73
2021/09/13 11:04:03;;;;;;;0.40;0.30;;;22.70;99.90;;;;;;5051900;28;20488;-73
2021/09/13 11:06:39;;;;;;;0.40;0.30;;;22.90;99.90;;;;;;5035158;28;20480;-73
2021/09/13 11:09:14;;;;;;;0.40;0.30;;;22.90;99.90;;;;;;5053049;28;20386;-73
2021/09/13 11:11:45;;;;;;;0.40;0.30;;;23.00;99.90;;;;;;5052101;28;20861;-73
2021/09/13 11:14:12;;;;;;;0.40;0.30;;;23.20;99.90;;;;;;5053204;28;20393;-72
2021/09/13 11:17:06;;;;;;;0.40;0.30;;;23.40;99.90;;;;;;5052857;28;20388;-73
2021/09/13 11:19:32;;;;;;;0.40;0.20;;;23.80;99.90;;;;;;5052741;28;20468;-72
2021/09/13 11:22:00;;;;;;;0.40;0.30;;;23.70;99.90;;;;;;5052085;28;20408;-73
2021/09/13 11:24:29;;;;;;;0.40;0.30;;;24.00;99.90;;;;;;5052534;28;20435;-73
2021/09/13 11:27:14;;;;;;;0.40;0.30;;;24.10;99.90;;;;;;5051903;28;20427;-73
2021/09/13 11:29:42;;;;;;;0.40;0.30;;;24.60;99.90;;;;;;5052625;28;20668;-73
2021/09/13 11:32:10;;;;;;;0.40;0.30;;;24.80;99.90;;;;;;5052681;28;20394;-72
2021/09/13 11:34:36;;;;;;;0.40;0.30;;;25.40;96.60;;;;;;5052118;28;20869;-71
2021/09/13 11:37:09;;;;;;;0.40;0.30;;;24.80;96.40;;;;;;5051842;28;20464;-71
2021/09/13 11:39:42;;;;;;;0.40;0.30;;;25.20;97.60;;;;;;5052554;28;20389;-70
2021/09/13 11:42:09;;;;;;;0.40;0.20;;;25.00;97.40;;;;;;5052232;28;20385;-71
2021/09/13 11:44:49;;;;;;;0.40;0.30;;;25.00;95.60;;;;;;5052038;28;20710;-71
2021/09/13 11:47:18;;;;;;;0.40;0.30;;;25.50;94.60;;;;;;5048255;28;20432;-70
2021/09/13 11:49:48;;;;;;;0.40;0.20;;;25.50;95.20;;;;;;5050957;28;20719;-71
2021/09/13 11:52:31;;;;;;;0.40;0.30;;;25.60;94.60;;;;;;5051127;28;20868;-70
2021/09/13 11:55:27;;;;;;;0.40;0.20;;;25.70;93.60;;;;;;5050234;28;20866;-70
2021/09/13 12:00:27;;;;;;;0.40;0.20;;;25.90;93.70;;;;;;2640538;22;20901;-73
2021/09/13 12:02:57;;;;;;;0.40;0.30;;;26.10;94.00;;;;;;5050147;28;20413;-72
2021/09/13 12:05:34;;;;;;;0.40;0.30;;;26.00;94.30;;;;;;5043132;28;20408;-70
2021/09/13 12:08:03;;;;;;;0.40;0.30;;;25.80;93.20;;;;;;5057625;28;20772;-73
2021/09/13 12:10:32;;;;;;;0.40;0.20;;;25.90;93.00;;;;;;5050940;28;20393;-72
2021/09/13 12:13:07;;;;;;;0.50;0.50;;;26.00;93.80;;;;;;5051413;28;20397;-72
2021/09/13 12:15:33;;;;;;;0.40;0.20;;;26.40;93.80;;;;;;5051213;28;20435;-72
2021/09/13 12:18:04;;;;;;;0.40;0.20;;;26.20;92.60;;;;;;5052249;28;20385;-71
2021/09/13 12:20:34;;;;;;;0.40;0.20;;;26.00;92.20;;;;;;5071118;28;20376;-71
2021/09/13 12:23:07;;;;;;;0.40;0.20;;;26.00;92.70;;;;;;5071469;28;20837;-71
2021/09/13 12:25:45;;;;;;;0.40;0.20;;;25.60;93.50;;;;;;5071043;28;20380;-72
2021/09/13 12:28:11;;;;;;;1.20;0.50;;;25.70;93.50;;;;;;5071407;28;20391;-72
2021/09/13 12:30:39;;;;;;;0.40;0.30;;;25.80;93.90;;;;;;5070878;28;20384;-72
2021/09/13 12:33:10;;;;;;;0.40;0.20;;;25.80;93.20;;;;;;5071153;28;20437;-72
2021/09/13 12:35:47;;;;;;;0.40;0.30;;;26.00;93.20;;;;;;5065207;28;20393;-71
2021/09/13 12:38:20;;;;;;;0.40;0.25;;;26.20;92.90;;;;;;5051450;28;20476;-71
2021/09/13 12:40:55;;;;;;;0.40;0.20;;;25.80;92.90;;;;;;5051320;28;20400;-70
2021/09/13 12:43:27;;;;;;;0.40;0.20;;;26.10;93.10;;;;;;5049112;28;20414;-71
2021/09/13 12:46:11;;;;;;;0.40;0.20;;;26.20;92.00;;;;;;5051839;28;20717;-72
2021/09/13 12:48:40;;;;;;;0.40;0.30;;;26.10;91.90;;;;;;5048808;28;20794;-72
2021/09/13 12:51:12;;;;;;;0.40;0.30;;;26.00;91.90;;;;;;5051446;28;20858;-70
2021/09/13 12:53:37;;;;;;;0.40;0.20;;;26.20;92.50;;;;;;5049313;28;21057;-71
2021/09/13 12:56:15;;;;;;;0.40;0.20;;;26.00;92.00;;;;;;5050804;28;20393;-74
2021/09/13 12:58:41;;;;;;;0.40;0.20;;;26.10;92.40;;;;;;5049223;28;20395;-72